createdAt,value
2023-04-02T00:00:55.474Z,83.28
2023-04-02T00:01:55.521Z,84.71
2023-04-02T00:02:55.589Z,82.66
2023-04-02T00:03:55.548Z,81.78
2023-04-02T00:04:55.536Z,83.31
2023-04-02T00:05:55.511Z,79.44
2023-04-02T00:06:55.517Z,81.75
2023-04-02T00:07:55.563Z,80.38
2023-04-02T00:08:55.567Z,80.98
2023-04-02T00:09:55.539Z,78.85
2023-04-02T00:10:55.595Z,81.80
2023-04-02T00:11:55.601Z,86.23
2023-04-02T00:12:55.574Z,82.94
2023-04-02T00:13:55.603Z,84.72
2023-04-02T00:14:55.613Z,83.01
2023-04-02T00:15:55.613Z,83.22
2023-04-02T00:16:55.629Z,79.84
2023-04-02T00:17:55.695Z,81.37
2023-04-02T00:18:55.654Z,83.72
2023-04-02T00:19:55.656Z,80.28
2023-04-02T00:20:55.645Z,81.26
2023-04-02T00:21:55.670Z,77.90
2023-04-02T00:22:55.673Z,78.69
2023-04-02T00:23:55.661Z,84.12
2023-04-02T00:24:55.649Z,79.03
2023-04-02T00:25:55.698Z,79.49
2023-04-02T00:26:55.689Z,77.97
2023-04-02T00:27:55.705Z,79.16
2023-04-02T00:28:55.715Z,78.37
2023-04-02T00:29:55.668Z,79.28
2023-04-02T00:30:55.672Z,78.87
2023-04-02T00:31:55.674Z,78.98
2023-04-02T00:32:55.755Z,76.03
2023-04-02T00:33:55.663Z,78.21
2023-04-02T00:34:55.675Z,81.87
2023-04-02T00:35:55.705Z,79.78
2023-04-02T00:36:55.674Z,80.98
2023-04-02T00:37:55.682Z,76.73
2023-04-02T00:38:55.671Z,80.53
2023-04-02T00:39:55.678Z,76.59
2023-04-02T00:40:55.662Z,78.02
2023-04-02T00:41:55.676Z,80.15
2023-04-02T00:42:55.641Z,80.16
2023-04-02T00:43:55.649Z,84.25
2023-04-02T00:44:55.676Z,80.91
2023-04-02T00:45:55.706Z,79.64
2023-04-02T00:46:55.648Z,77.48
2023-04-02T00:47:55.661Z,78.88
2023-04-02T00:48:55.681Z,79.36
2023-04-02T00:49:55.642Z,80.40
2023-04-02T00:50:55.628Z,80.96
2023-04-02T00:51:55.659Z,80.83
2023-04-02T00:52:55.627Z,78.76
2023-04-02T00:53:55.635Z,79.86
2023-04-02T00:54:55.677Z,78.82
2023-04-02T00:55:55.628Z,77.52
2023-04-02T00:56:55.665Z,77.40
2023-04-02T00:57:55.610Z,80.82
2023-04-02T00:58:55.628Z,79.66
2023-04-02T00:59:55.625Z,80.16
2023-04-02T01:00:55.656Z,77.48
2023-04-02T01:01:55.623Z,77.58
2023-04-02T01:02:55.706Z,79.69
2023-04-02T01:03:55.685Z,77.37
2023-04-02T01:04:55.620Z,73.99
2023-04-02T01:05:55.622Z,80.02
2023-04-02T01:06:55.619Z,77.60
2023-04-02T01:07:55.638Z,74.22
2023-04-02T01:08:55.631Z,75.40
2023-04-02T01:09:55.599Z,76.79
2023-04-02T01:10:55.595Z,76.29
2023-04-02T01:11:55.626Z,79.25
2023-04-02T01:12:55.606Z,78.42
2023-04-02T01:13:55.610Z,76.21
2023-04-02T01:14:55.611Z,79.80
2023-04-02T01:15:55.647Z,77.52
2023-04-02T01:16:55.643Z,78.38
2023-04-02T01:17:55.616Z,78.94
2023-04-02T01:18:55.627Z,78.16
2023-04-02T01:19:55.634Z,81.59
2023-04-02T01:20:55.620Z,79.67
2023-04-02T01:21:55.614Z,80.17
2023-04-02T01:22:55.623Z,78.33
2023-04-02T01:23:55.621Z,80.24
2023-04-02T01:24:55.630Z,80.09
2023-04-02T01:25:55.619Z,78.66
2023-04-02T01:26:55.649Z,76.25
2023-04-02T01:27:55.657Z,78.38
2023-04-02T01:28:55.612Z,82.00
2023-04-02T01:29:55.659Z,78.39
2023-04-02T01:30:55.638Z,76.44
2023-04-02T01:31:55.630Z,76.31
2023-04-02T01:32:55.645Z,79.13
2023-04-02T01:33:55.629Z,76.69
2023-04-02T01:34:55.635Z,78.22
2023-04-02T01:35:55.651Z,81.13
2023-04-02T01:36:55.633Z,81.69
2023-04-02T01:37:55.615Z,81.24
2023-04-02T01:38:55.631Z,79.99
2023-04-02T01:39:55.630Z,78.20
2023-04-02T01:40:55.598Z,82.82
2023-04-02T01:41:55.602Z,78.32
2023-04-02T01:42:55.587Z,78.28
2023-04-02T01:43:55.611Z,78.61
2023-04-02T01:44:55.602Z,77.45
2023-04-02T01:45:55.568Z,77.41
2023-04-02T01:46:55.625Z,78.36
2023-04-02T01:47:55.701Z,76.67
2023-04-02T01:48:55.588Z,76.82
2023-04-02T01:49:55.632Z,79.40
2023-04-02T01:50:55.605Z,77.30
2023-04-02T01:51:56.414Z,77.22
2023-04-02T01:52:55.649Z,72.13
2023-04-02T01:53:55.585Z,75.57
2023-04-02T01:54:55.595Z,77.50
2023-04-02T01:55:55.597Z,75.37
2023-04-02T01:56:55.654Z,75.17
2023-04-02T01:57:55.587Z,73.88
2023-04-02T01:58:55.595Z,75.01
2023-04-02T01:59:55.587Z,77.87
2023-04-02T02:00:55.617Z,76.00
2023-04-02T02:01:55.603Z,78.16
2023-04-02T02:02:55.637Z,73.56
2023-04-02T02:03:55.650Z,76.63
2023-04-02T02:04:55.552Z,74.87
2023-04-02T02:05:55.589Z,72.78
2023-04-02T02:06:55.573Z,74.32
2023-04-02T02:07:55.590Z,70.90
2023-04-02T02:08:55.554Z,74.44
2023-04-02T02:09:55.554Z,76.43
2023-04-02T02:10:55.581Z,74.18
2023-04-02T02:11:55.569Z,73.65
2023-04-02T02:12:55.579Z,73.03
2023-04-02T02:13:55.579Z,77.33
2023-04-02T02:14:55.545Z,75.42
2023-04-02T02:15:55.561Z,75.37
2023-04-02T02:16:55.553Z,73.77
2023-04-02T02:17:55.622Z,77.91
2023-04-02T02:18:55.574Z,73.22
2023-04-02T02:19:55.581Z,74.31
2023-04-02T02:20:55.578Z,76.75
2023-04-02T02:21:55.597Z,75.49
2023-04-02T02:22:55.588Z,74.31
2023-04-02T02:23:55.619Z,74.62
2023-04-02T02:24:55.594Z,72.47
2023-04-02T02:25:55.621Z,75.20
2023-04-02T02:26:55.621Z,75.77
2023-04-02T02:27:55.634Z,70.79
2023-04-02T02:28:55.654Z,72.37
2023-04-02T02:29:55.592Z,72.60
2023-04-02T02:30:55.599Z,72.26
2023-04-02T02:31:55.653Z,74.77
2023-04-02T02:32:55.717Z,76.56
2023-04-02T02:33:55.593Z,73.69
2023-04-02T02:34:55.604Z,75.24
2023-04-02T02:35:55.664Z,73.30
2023-04-02T02:36:55.624Z,73.42
2023-04-02T02:37:55.590Z,75.54
2023-04-02T02:38:55.609Z,74.44
2023-04-02T02:39:55.585Z,76.68
2023-04-02T02:40:55.609Z,73.11
2023-04-02T02:41:55.619Z,75.88
2023-04-02T02:42:55.601Z,72.74
2023-04-02T02:43:55.610Z,74.51
2023-04-02T02:44:55.560Z,77.90
2023-04-02T02:45:55.599Z,71.83
2023-04-02T02:46:55.578Z,75.77
2023-04-02T02:47:55.620Z,73.64
2023-04-02T02:48:55.602Z,72.11
2023-04-02T02:49:55.601Z,71.38
2023-04-02T02:50:55.563Z,75.15
2023-04-02T02:51:55.584Z,73.37
2023-04-02T02:52:55.586Z,73.73
2023-04-02T02:53:55.592Z,75.20
2023-04-02T02:54:55.587Z,71.89
2023-04-02T02:55:55.586Z,71.68
2023-04-02T02:56:55.620Z,70.78
2023-04-02T02:57:55.585Z,69.53
2023-04-02T02:58:55.592Z,70.28
2023-04-02T02:59:55.579Z,75.46
2023-04-02T03:00:55.599Z,72.49
2023-04-02T03:01:55.624Z,74.65
2023-04-02T03:02:55.649Z,72.91
2023-04-02T03:03:55.733Z,70.55
2023-04-02T03:04:55.600Z,75.96
2023-04-02T03:05:55.608Z,73.15
2023-04-02T03:06:55.600Z,74.52
2023-04-02T03:07:55.598Z,73.70
2023-04-02T03:08:55.589Z,73.85
2023-04-02T03:09:55.583Z,76.53
2023-04-02T03:10:55.600Z,72.21
2023-04-02T03:11:55.592Z,75.62
2023-04-02T03:12:55.616Z,76.01
2023-04-02T03:13:55.616Z,75.08
2023-04-02T03:14:55.601Z,76.27
2023-04-02T03:15:55.689Z,74.96
2023-04-02T03:16:55.609Z,73.70
2023-04-02T03:17:55.656Z,75.06
2023-04-02T03:18:55.609Z,76.53
2023-04-02T03:19:55.629Z,73.50
2023-04-02T03:20:55.640Z,77.26
2023-04-02T03:21:55.629Z,78.26
2023-04-02T03:22:55.648Z,73.50
2023-04-02T03:23:55.692Z,76.92
2023-04-02T03:24:55.677Z,75.52
2023-04-02T03:25:55.716Z,75.60
2023-04-02T03:26:55.698Z,74.41
2023-04-02T03:27:55.721Z,70.27
2023-04-02T03:28:55.721Z,77.66
2023-04-02T03:29:55.689Z,76.49
2023-04-02T03:30:55.754Z,78.62
2023-04-02T03:31:55.708Z,75.08
2023-04-02T03:32:55.742Z,76.16
2023-04-02T03:33:55.763Z,74.20
2023-04-02T03:34:55.773Z,75.49
2023-04-02T03:35:55.824Z,76.61
2023-04-02T03:36:55.818Z,73.32
2023-04-02T03:37:55.854Z,72.83
2023-04-02T03:38:55.880Z,74.93
2023-04-02T03:39:55.894Z,77.41
2023-04-02T03:40:55.939Z,75.90
2023-04-02T03:41:55.933Z,75.59
2023-04-02T03:42:55.953Z,75.22
2023-04-02T03:43:55.929Z,75.29
2023-04-02T03:44:56.014Z,71.59
2023-04-02T03:45:55.983Z,77.96
2023-04-02T03:46:55.986Z,76.64
2023-04-02T03:47:56.081Z,72.07
2023-04-02T03:48:56.028Z,73.50
2023-04-02T03:49:56.038Z,72.32
2023-04-02T03:50:56.010Z,69.59
2023-04-02T03:51:56.003Z,68.85
2023-04-02T03:52:56.050Z,72.92
2023-04-02T03:53:56.063Z,76.16
2023-04-02T03:54:56.031Z,73.93
2023-04-02T03:55:56.040Z,70.93
2023-04-02T03:56:56.053Z,70.67
2023-04-02T03:57:56.032Z,73.69
2023-04-02T03:58:56.025Z,75.36
2023-04-02T03:59:56.023Z,75.55
2023-04-02T04:00:56.017Z,77.66
2023-04-02T04:01:56.041Z,70.26
2023-04-02T04:02:56.028Z,72.30
2023-04-02T04:03:56.082Z,75.25
2023-04-02T04:04:56.004Z,71.23
2023-04-02T04:05:56.990Z,69.22
2023-04-02T04:06:55.997Z,74.02
2023-04-02T04:07:56.012Z,72.62
2023-04-02T04:08:55.996Z,70.11
2023-04-02T04:09:56.026Z,73.38
2023-04-02T04:10:56.037Z,68.38
2023-04-02T04:11:56.025Z,69.53
2023-04-02T04:12:56.023Z,70.93
2023-04-02T04:13:56.032Z,70.92
2023-04-02T04:14:56.034Z,68.87
2023-04-02T04:15:56.023Z,67.93
2023-04-02T04:16:56.100Z,72.89
2023-04-02T04:17:56.096Z,70.27
2023-04-02T04:18:56.023Z,71.97
2023-04-02T04:19:56.054Z,72.91
2023-04-02T04:20:56.067Z,72.11
2023-04-02T04:21:56.071Z,68.90
2023-04-02T04:22:56.293Z,70.62
2023-04-02T04:23:56.081Z,71.05
2023-04-02T04:24:56.060Z,71.27
2023-04-02T04:25:56.068Z,70.07
2023-04-02T04:26:56.117Z,64.67
2023-04-02T04:27:56.082Z,64.82
2023-04-02T04:28:56.113Z,69.75
2023-04-02T04:29:56.120Z,65.64
2023-04-02T04:30:56.139Z,71.38
2023-04-02T04:31:56.230Z,68.72
2023-04-02T04:32:56.199Z,66.28
2023-04-02T04:33:56.132Z,68.85
2023-04-02T04:34:56.163Z,68.94
2023-04-02T04:35:56.198Z,67.85
2023-04-02T04:36:56.162Z,71.51
2023-04-02T04:37:56.142Z,66.35
2023-04-02T04:38:56.188Z,66.29
2023-04-02T04:39:57.016Z,67.01
2023-04-02T04:40:56.164Z,69.92
2023-04-02T04:41:56.185Z,69.97
2023-04-02T04:42:56.181Z,69.70
2023-04-02T04:43:56.206Z,70.02
2023-04-02T04:44:56.203Z,67.45
2023-04-02T04:45:56.250Z,64.12
2023-04-02T04:46:56.213Z,69.81
2023-04-02T04:47:56.272Z,70.14
2023-04-02T04:48:56.200Z,67.33
2023-04-02T04:49:56.230Z,69.09
2023-04-02T04:50:56.224Z,68.51
2023-04-02T04:51:56.239Z,67.63
2023-04-02T04:52:56.261Z,71.74
2023-04-02T04:53:56.210Z,67.44
2023-04-02T04:54:56.213Z,68.09
2023-04-02T04:55:59.707Z,68.63
2023-04-02T04:56:57.299Z,68.65
2023-04-02T04:57:56.256Z,68.87
2023-04-02T04:58:56.254Z,69.44
2023-04-02T04:59:56.262Z,68.34
2023-04-02T05:00:56.237Z,65.73
2023-04-02T05:01:56.346Z,70.56
2023-04-02T05:02:56.262Z,65.12
2023-04-02T05:03:56.199Z,71.80
2023-04-02T05:04:56.247Z,72.04
2023-04-02T05:05:56.182Z,69.08
2023-04-02T05:06:56.189Z,65.85
2023-04-02T05:07:57.089Z,68.74
2023-04-02T05:08:56.179Z,69.02
2023-04-02T05:09:56.193Z,68.78
2023-04-02T05:10:56.171Z,67.77
2023-04-02T05:11:56.160Z,66.98
2023-04-02T05:12:56.169Z,68.70
2023-04-02T05:13:56.150Z,66.12
2023-04-02T05:14:56.174Z,66.66
2023-04-02T05:15:56.158Z,67.93
2023-04-02T05:16:56.153Z,65.49
2023-04-02T05:17:56.192Z,67.15
2023-04-02T05:18:56.155Z,66.32
2023-04-02T05:19:56.127Z,68.18
2023-04-02T05:20:56.122Z,65.30
2023-04-02T05:21:56.126Z,67.96
2023-04-02T05:22:56.101Z,65.75
2023-04-02T05:23:56.089Z,67.92
2023-04-02T05:24:56.078Z,69.94
2023-04-02T05:25:56.092Z,68.93
2023-04-02T05:26:56.101Z,68.62
2023-04-02T05:27:56.112Z,64.75
2023-04-02T05:28:56.119Z,63.21
2023-04-02T05:29:56.131Z,65.52
2023-04-02T05:30:56.124Z,67.75
2023-04-02T05:31:56.107Z,63.18
2023-04-02T05:32:56.115Z,69.61
2023-04-02T05:33:56.105Z,66.23
2023-04-02T05:34:56.131Z,69.59
2023-04-02T05:35:56.173Z,66.92
2023-04-02T05:36:56.137Z,66.44
2023-04-02T05:37:56.148Z,66.40
2023-04-02T05:38:56.124Z,64.25
2023-04-02T05:39:56.110Z,66.37
2023-04-02T05:40:56.133Z,68.46
2023-04-02T05:41:56.136Z,66.33
2023-04-02T05:42:56.105Z,65.79
2023-04-02T05:43:56.176Z,64.20
2023-04-02T05:44:56.140Z,64.97
2023-04-02T05:45:56.140Z,66.23
2023-04-02T05:46:56.186Z,64.37
2023-04-02T05:47:56.159Z,66.38
2023-04-02T05:48:56.151Z,65.46
2023-04-02T05:49:56.134Z,64.50
2023-04-02T05:50:56.172Z,66.84
2023-04-02T05:51:57.494Z,65.51
2023-04-02T05:52:56.116Z,63.44
2023-04-02T05:53:56.153Z,62.19
2023-04-02T05:54:56.149Z,61.57
2023-04-02T05:55:56.157Z,64.20
2023-04-02T05:56:56.197Z,59.28
2023-04-02T05:58:17.662Z,66.04
2023-04-02T05:58:57.211Z,66.06
2023-04-02T05:59:56.124Z,66.15
2023-04-02T06:00:56.123Z,66.05
2023-04-02T06:01:56.180Z,62.97
2023-04-02T06:02:56.232Z,62.06
2023-04-02T06:03:56.210Z,62.86
2023-04-02T06:04:56.159Z,63.10
2023-04-02T06:05:56.082Z,62.34
2023-04-02T06:06:56.114Z,64.27
2023-04-02T06:07:56.070Z,61.24
2023-04-02T06:08:56.111Z,64.53
2023-04-02T06:09:56.095Z,61.18
2023-04-02T06:10:56.077Z,60.97
2023-04-02T06:11:56.060Z,63.50
2023-04-02T06:12:56.081Z,65.85
2023-04-02T06:13:56.054Z,61.91
2023-04-02T06:14:56.043Z,63.79
2023-04-02T06:15:56.037Z,61.38
2023-04-02T06:16:56.073Z,60.73
2023-04-02T06:17:56.091Z,63.00
2023-04-02T06:18:56.048Z,61.61
2023-04-02T06:19:56.008Z,61.59
2023-04-02T06:20:56.024Z,65.20
2023-04-02T06:21:56.011Z,66.02
2023-04-02T06:22:55.990Z,65.25
2023-04-02T06:23:55.994Z,63.50
2023-04-02T06:24:55.951Z,67.04
2023-04-02T06:25:55.971Z,60.93
2023-04-02T06:26:56.053Z,65.16
2023-04-02T06:27:55.956Z,60.70
2023-04-02T06:28:55.948Z,64.83
2023-04-02T06:29:55.932Z,63.93
2023-04-02T06:30:55.963Z,64.83
2023-04-02T06:31:55.939Z,66.62
2023-04-02T06:32:55.957Z,66.24
2023-04-02T06:33:55.928Z,65.91
2023-04-02T06:34:55.926Z,63.21
2023-04-02T06:35:55.949Z,66.15
2023-04-02T06:36:55.900Z,63.16
2023-04-02T06:37:55.883Z,63.43
2023-04-02T06:38:55.892Z,65.44
2023-04-02T06:39:55.874Z,63.75
2023-04-02T06:40:57.581Z,67.25
2023-04-02T06:41:55.860Z,64.95
2023-04-02T06:42:55.876Z,66.99
2023-04-02T06:43:55.829Z,62.78
2023-04-02T06:44:55.844Z,60.97
2023-04-02T06:45:55.869Z,66.46
2023-04-02T06:46:55.845Z,63.58
2023-04-02T06:47:55.888Z,63.09
2023-04-02T06:48:55.848Z,64.72
2023-04-02T06:49:55.808Z,65.24
2023-04-02T06:50:55.806Z,61.66
2023-04-02T06:51:55.819Z,63.39
2023-04-02T06:52:55.782Z,64.59
2023-04-02T06:53:55.807Z,62.22
2023-04-02T06:54:55.780Z,63.32
2023-04-02T06:55:55.757Z,63.60
2023-04-02T06:56:55.757Z,62.65
2023-04-02T06:57:55.782Z,60.58
2023-04-02T06:58:55.777Z,62.21
2023-04-02T06:59:55.735Z,56.60
2023-04-02T07:00:55.730Z,60.19
2023-04-02T07:01:55.738Z,61.28
2023-04-02T07:02:55.731Z,58.94
2023-04-02T07:03:55.740Z,61.83
2023-04-02T07:04:55.732Z,55.15
2023-04-02T07:05:55.698Z,56.94
2023-04-02T07:06:55.714Z,57.08
2023-04-02T07:07:55.674Z,58.01
2023-04-02T07:08:55.709Z,57.04
2023-04-02T07:09:55.653Z,59.49
2023-04-02T07:10:55.671Z,57.08
2023-04-02T07:11:55.697Z,56.80
2023-04-02T07:12:55.654Z,58.16
2023-04-02T07:13:55.637Z,58.11
2023-04-02T07:14:56.566Z,53.10
2023-04-02T07:15:55.743Z,55.99
2023-04-02T07:16:55.639Z,56.07
2023-04-02T07:17:55.630Z,55.43
2023-04-02T07:18:55.605Z,59.41
2023-04-02T07:19:55.638Z,54.96
2023-04-02T07:20:55.625Z,56.43
2023-04-02T07:21:55.623Z,53.69
2023-04-02T07:22:55.590Z,55.37
2023-04-02T07:23:55.625Z,54.73
2023-04-02T07:24:55.577Z,55.84
2023-04-02T07:25:55.570Z,54.70
2023-04-02T07:26:55.553Z,53.41
2023-04-02T07:27:55.579Z,54.78
2023-04-02T07:28:55.545Z,52.52
2023-04-02T07:29:55.550Z,53.60
2023-04-02T07:30:55.536Z,51.03
2023-04-02T07:31:55.600Z,53.23
2023-04-02T07:32:55.557Z,51.78
2023-04-02T07:33:55.540Z,54.76
2023-04-02T07:34:55.538Z,55.68
2023-04-02T07:35:55.564Z,56.19
2023-04-02T07:36:55.504Z,53.81
2023-04-02T07:37:55.520Z,51.29
2023-04-02T07:38:55.464Z,56.69
2023-04-02T07:39:55.473Z,52.21
2023-04-02T07:40:55.458Z,51.46
2023-04-02T07:41:55.480Z,51.41
2023-04-02T07:42:55.463Z,53.22
2023-04-02T07:43:55.450Z,51.46
2023-04-02T07:44:55.437Z,52.89
2023-04-02T07:45:55.417Z,55.49
2023-04-02T07:46:55.453Z,55.31
2023-04-02T07:47:55.440Z,50.56
2023-04-02T07:48:55.412Z,52.14
2023-04-02T07:49:55.380Z,51.45
2023-04-02T07:50:55.390Z,53.16
2023-04-02T07:51:55.400Z,53.42
2023-04-02T07:52:55.368Z,51.85
2023-04-02T07:53:55.387Z,51.08
2023-04-02T07:54:55.376Z,55.84
2023-04-02T07:55:55.370Z,51.96
2023-04-02T07:56:55.428Z,53.23
2023-04-02T07:57:55.343Z,49.90
2023-04-02T07:58:55.336Z,50.74
2023-04-02T07:59:55.349Z,51.92
2023-04-02T08:00:55.324Z,50.11
2023-04-02T08:01:55.323Z,50.09
2023-04-02T08:02:55.442Z,49.68
2023-04-02T08:03:55.381Z,53.46
2023-04-02T08:04:55.301Z,51.21
2023-04-02T08:05:55.283Z,50.24
2023-04-02T08:06:55.266Z,49.36
2023-04-02T08:07:55.305Z,51.33
2023-04-02T08:08:55.295Z,50.23
2023-04-02T08:09:55.235Z,53.42
2023-04-02T08:10:55.246Z,55.58
2023-04-02T08:11:55.229Z,51.25
2023-04-02T08:12:55.251Z,55.29
2023-04-02T08:13:55.248Z,55.15
2023-04-02T08:14:55.219Z,55.24
2023-04-02T08:15:55.220Z,54.31
2023-04-02T08:16:55.239Z,55.05
2023-04-02T08:17:55.254Z,55.42
2023-04-02T08:18:55.223Z,52.25
2023-04-02T08:19:55.519Z,53.53
2023-04-02T08:20:55.182Z,48.71
2023-04-02T08:23:02.393Z,25.00
2023-04-02T08:24:02.408Z,25.00
2023-04-02T08:25:02.420Z,25.00
2023-04-02T08:26:02.401Z,25.00
2023-04-02T08:27:02.400Z,25.00
2023-04-02T08:28:02.407Z,25.35
2023-04-02T08:29:02.406Z,27.82
2023-04-02T08:30:02.381Z,29.38
2023-04-02T08:31:02.455Z,28.30
2023-04-02T08:32:02.378Z,27.13
2023-04-02T08:33:02.395Z,28.01
2023-04-02T08:34:02.340Z,27.40
2023-04-02T08:35:02.310Z,27.61
2023-04-02T08:36:02.339Z,28.44
2023-04-02T08:37:02.319Z,27.75
2023-04-02T08:38:02.343Z,27.54
2023-04-02T08:39:02.303Z,26.43
2023-04-02T08:40:02.314Z,29.55
2023-04-02T08:41:02.305Z,28.86
2023-04-02T08:42:02.274Z,29.78
2023-04-02T08:43:02.319Z,29.69
2023-04-02T08:44:02.295Z,30.02
2023-04-02T08:45:08.057Z,30.84
2023-04-02T08:46:03.340Z,31.19
2023-04-02T08:47:02.262Z,31.39
2023-04-02T08:48:02.294Z,31.21
2023-04-02T08:49:02.254Z,33.54
2023-04-02T08:50:02.221Z,32.43
2023-04-02T08:51:02.232Z,32.32
2023-04-02T08:52:02.246Z,34.65
2023-04-02T08:53:02.254Z,31.38
2023-04-02T08:54:02.269Z,34.14
2023-04-02T08:55:02.314Z,36.31
2023-04-02T08:56:02.372Z,34.75
2023-04-02T08:57:02.417Z,34.36
2023-04-02T08:58:02.440Z,34.42
2023-04-02T08:59:02.468Z,33.12
2023-04-02T09:00:02.515Z,29.88
2023-04-02T09:01:02.560Z,28.39
2023-04-02T09:02:02.634Z,26.35
2023-04-02T09:03:02.699Z,30.62
2023-04-02T09:04:02.673Z,30.58
2023-04-02T09:05:02.742Z,28.17
2023-04-02T09:06:02.817Z,31.04
2023-04-02T09:07:02.830Z,35.29
2023-04-02T09:08:02.929Z,32.97
2023-04-02T09:09:02.894Z,31.58
2023-04-02T09:10:02.955Z,33.16
2023-04-02T09:11:02.959Z,36.09
2023-04-02T09:12:03.040Z,36.45
2023-04-02T09:13:03.126Z,34.74
2023-04-02T09:14:03.199Z,36.99
2023-04-02T09:15:03.238Z,36.50
2023-04-02T09:16:03.334Z,32.99
2023-04-02T09:17:03.357Z,36.22
2023-04-02T09:18:03.459Z,34.87
2023-04-02T09:19:03.480Z,34.98
2023-04-02T09:20:03.499Z,36.58
2023-04-02T09:21:03.589Z,38.72
2023-04-02T09:22:03.657Z,40.11
2023-04-02T09:23:03.717Z,36.28
2023-04-02T09:24:04.743Z,37.01
2023-04-02T09:25:03.776Z,38.63
2023-04-02T09:26:05.000Z,40.78
2023-04-02T09:27:03.925Z,37.96
2023-04-02T09:28:04.143Z,41.87
2023-04-02T09:29:04.034Z,38.44
2023-04-02T09:30:06.687Z,39.43
2023-04-02T09:31:06.233Z,39.68
2023-04-02T09:32:04.643Z,40.79
2023-04-02T09:33:04.607Z,42.71
2023-04-02T09:34:04.657Z,41.38
2023-04-02T09:35:12.310Z,45.58
2023-04-02T09:36:05.749Z,45.61
2023-04-02T09:37:04.680Z,43.58
2023-04-02T09:38:04.688Z,41.20
2023-04-02T09:39:04.666Z,39.03
2023-04-02T09:40:04.660Z,40.45
2023-04-02T09:41:04.686Z,41.69
2023-04-02T09:42:06.005Z,43.77
2023-04-02T09:43:04.665Z,42.88
2023-04-02T09:44:04.692Z,40.46
2023-04-02T09:45:04.731Z,40.62
2023-04-02T09:46:04.781Z,43.74
2023-04-02T09:47:04.958Z,43.49
2023-04-02T09:48:04.917Z,46.54
2023-04-02T09:49:04.948Z,44.20
2023-04-02T09:50:04.997Z,44.40
2023-04-02T09:51:05.041Z,45.10
2023-04-02T09:52:05.124Z,44.90
2023-04-02T09:53:05.137Z,46.15
2023-04-02T09:54:05.169Z,46.91
2023-04-02T09:55:05.209Z,46.55
2023-04-02T09:56:05.279Z,45.74
2023-04-02T09:57:05.435Z,46.28
2023-04-02T09:58:05.386Z,44.43
2023-04-02T09:59:05.457Z,45.77
2023-04-02T10:00:05.495Z,42.99
2023-04-02T10:01:05.580Z,45.41
2023-04-02T10:02:05.613Z,44.76
2023-04-02T10:03:05.667Z,47.94
2023-04-02T10:04:05.803Z,48.02
2023-04-02T10:05:05.742Z,46.20
2023-04-02T10:06:05.816Z,46.48
2023-04-02T10:07:05.901Z,47.33
2023-04-02T10:08:05.934Z,39.77
2023-04-02T10:09:06.017Z,43.90
2023-04-02T10:10:06.053Z,44.97
2023-04-02T10:11:06.138Z,42.08
2023-04-02T10:12:06.196Z,46.39
2023-04-02T10:13:06.257Z,41.54
2023-04-02T10:14:06.335Z,44.24
2023-04-02T10:15:06.422Z,44.27
2023-04-02T10:16:06.454Z,45.45
2023-04-02T10:17:06.610Z,43.29
2023-04-02T10:18:06.551Z,45.51
2023-04-02T10:19:06.601Z,50.05
2023-04-02T10:20:06.673Z,47.00
2023-04-02T10:21:06.680Z,47.55
2023-04-02T10:22:06.722Z,47.78
2023-04-02T10:23:06.756Z,48.10
2023-04-02T10:24:06.834Z,44.20
2023-04-02T10:25:06.902Z,42.83
2023-04-02T10:26:06.926Z,44.87
2023-04-02T10:27:06.974Z,43.26
2023-04-02T10:28:07.012Z,43.22
2023-04-02T10:29:07.278Z,46.07
2023-04-02T10:30:07.135Z,45.64
2023-04-02T10:31:07.322Z,43.63
2023-04-02T10:32:07.256Z,45.62
2023-04-02T10:33:07.391Z,43.81
2023-04-02T10:34:07.373Z,43.94
2023-04-02T10:35:07.468Z,38.54
2023-04-02T10:36:07.506Z,43.27
2023-04-02T10:37:07.569Z,46.49
2023-04-02T10:38:07.620Z,44.15
2023-04-02T10:39:07.658Z,43.84
2023-04-02T10:40:07.700Z,43.94
2023-04-02T10:41:07.786Z,42.31
2023-04-02T10:42:07.871Z,40.88
2023-04-02T10:43:07.879Z,45.89
2023-04-02T10:44:18.807Z,47.14
2023-04-02T10:45:08.994Z,47.31
2023-04-02T10:46:08.083Z,47.52
2023-04-02T10:47:07.960Z,47.85
2023-04-02T10:48:07.997Z,47.58
2023-04-02T10:49:07.966Z,47.76
2023-04-02T10:50:07.950Z,47.26
2023-04-02T10:51:07.927Z,44.57
2023-04-02T10:52:07.927Z,45.96
2023-04-02T10:53:07.901Z,48.01
2023-04-02T10:54:07.955Z,44.52
2023-04-02T10:55:07.976Z,45.78
2023-04-02T10:56:08.032Z,44.98
2023-04-02T10:57:08.134Z,45.96
2023-04-02T10:58:08.139Z,43.44
2023-04-02T10:59:08.222Z,47.78
2023-04-02T11:00:08.299Z,49.01
2023-04-02T11:01:08.419Z,46.89
2023-04-02T11:02:08.423Z,47.27
2023-04-02T11:03:08.655Z,49.13
2023-04-02T11:04:08.547Z,47.31
2023-04-02T11:05:08.583Z,48.28
2023-04-02T11:06:09.719Z,41.95
2023-04-02T11:07:14.487Z,46.37
2023-04-02T11:08:09.714Z,46.55
2023-04-02T11:09:08.693Z,46.39
2023-04-02T11:10:08.694Z,46.58
2023-04-02T11:11:08.696Z,47.42
2023-04-02T11:12:08.704Z,50.30
2023-04-02T11:13:08.694Z,45.70
2023-04-02T11:14:08.667Z,46.74
2023-04-02T11:15:08.687Z,49.42
2023-04-02T11:16:08.695Z,48.49
2023-04-02T11:17:08.713Z,45.38
2023-04-02T11:18:08.769Z,44.71
2023-04-02T11:19:08.847Z,43.75
2023-04-02T11:20:08.872Z,45.13
2023-04-02T11:21:08.944Z,45.01
2023-04-02T11:22:09.014Z,43.96
2023-04-02T11:23:09.078Z,46.00
2023-04-02T11:24:09.148Z,47.03
2023-04-02T11:25:09.190Z,47.95
2023-04-02T11:26:09.260Z,49.26
2023-04-02T11:27:09.282Z,46.88
2023-04-02T11:28:09.358Z,48.86
2023-04-02T11:29:09.395Z,44.48
2023-04-02T11:30:09.436Z,48.34
2023-04-02T11:31:09.544Z,45.94
2023-04-02T11:32:09.572Z,48.19
2023-04-02T11:33:09.645Z,44.59
2023-04-02T11:34:09.692Z,49.38
2023-04-02T11:35:09.752Z,49.66
2023-04-02T11:36:09.840Z,51.83
2023-04-02T11:37:10.715Z,48.44
2023-04-02T11:38:09.927Z,49.07
2023-04-02T11:39:17.111Z,44.41
2023-04-02T11:40:10.988Z,44.67
2023-04-02T11:41:09.982Z,45.33
2023-04-02T11:42:09.964Z,45.66
2023-04-02T11:43:09.970Z,47.03
2023-04-02T11:44:09.986Z,47.31
2023-04-02T11:45:09.967Z,50.76
2023-04-02T11:46:10.034Z,50.43
2023-04-02T11:47:09.942Z,47.97
2023-04-02T11:48:09.962Z,45.86
2023-04-02T11:49:09.975Z,48.07
2023-04-02T11:50:10.063Z,49.29
2023-04-02T11:51:10.096Z,46.18
2023-04-02T11:52:12.445Z,47.60
2023-04-02T11:53:10.146Z,47.34
2023-04-02T11:54:10.147Z,46.66
2023-04-02T11:55:10.119Z,50.91
2023-04-02T11:56:10.139Z,47.86
2023-04-02T11:57:10.167Z,50.80
2023-04-02T11:58:10.115Z,48.49
2023-04-02T11:59:10.088Z,47.66
2023-04-02T12:00:10.099Z,46.29
2023-04-02T12:01:10.088Z,51.08
2023-04-02T12:02:10.269Z,50.40
2023-04-02T12:03:10.127Z,45.63
2023-04-02T12:04:10.069Z,49.99
2023-04-02T12:05:10.086Z,49.33
2023-04-02T12:06:10.044Z,47.97
2023-04-02T12:07:10.042Z,51.94
2023-04-02T12:08:10.011Z,45.45
2023-04-02T12:09:10.027Z,48.19
2023-04-02T12:10:10.032Z,50.61
2023-04-02T12:11:10.006Z,50.13
2023-04-02T12:12:10.009Z,48.64
2023-04-02T12:13:09.990Z,51.30
2023-04-02T12:14:10.029Z,49.53
2023-04-02T12:15:09.994Z,48.92
2023-04-02T12:16:09.978Z,52.13
2023-04-02T12:17:10.127Z,51.78
2023-04-02T12:18:10.021Z,49.91
2023-04-02T12:19:09.965Z,48.83
2023-04-02T12:20:10.270Z,48.56
2023-04-02T12:21:09.935Z,48.16
2023-04-02T12:22:09.933Z,52.36
2023-04-02T12:23:09.939Z,41.09
2023-04-02T12:24:09.929Z,47.19
2023-04-02T12:25:09.967Z,48.09
2023-04-02T12:26:09.961Z,48.16
2023-04-02T12:27:09.926Z,46.67
2023-04-02T12:28:09.932Z,50.57
2023-04-02T12:29:09.905Z,50.50
2023-04-02T12:30:09.955Z,50.26
2023-04-02T12:31:10.046Z,48.25
2023-04-02T12:32:10.066Z,49.79
2023-04-02T12:33:10.160Z,51.78
2023-04-02T12:34:10.183Z,51.47
2023-04-02T12:35:10.253Z,49.00
2023-04-02T12:36:10.343Z,48.39
2023-04-02T12:37:10.359Z,49.31
2023-04-02T12:38:10.460Z,47.38
2023-04-02T12:39:10.470Z,50.12
2023-04-02T12:40:10.600Z,48.07
2023-04-02T12:41:10.629Z,51.37
2023-04-02T12:42:10.669Z,49.87
2023-04-02T12:43:10.707Z,45.77
2023-04-02T12:44:10.828Z,48.68
2023-04-02T12:45:10.844Z,49.10
2023-04-02T12:46:10.914Z,50.00
2023-04-02T12:47:10.955Z,47.25
2023-04-02T12:48:11.035Z,46.65
2023-04-02T12:49:11.060Z,46.18
2023-04-02T12:50:11.159Z,45.40
2023-04-02T12:51:11.229Z,47.50
2023-04-02T12:52:11.285Z,47.19
2023-04-02T12:53:11.322Z,42.22
2023-04-02T12:54:11.349Z,48.04